sensor_id;sensor_type;location;lat;lon;timestamp;temperature;humidity
66422;DHT22;53228;51.380;0.098;2022-10-16T00:01:54;13.10;99.90
66422;DHT22;53228;51.380;0.098;2022-10-16T00:04:21;13.10;99.90
66422;DHT22;53228;51.380;0.098;2022-10-16T00:06:49;13.20;99.90
66422;DHT22;53228;51.380;0.098;2022-10-16T00:09:20;13.30;99.90
66422;DHT22;53228;51.380;0.098;2022-10-16T00:11:47;13.00;99.90
66422;DHT22;53228;51.380;0.098;2022-10-16T00:14:15;13.00;99.90
66422;DHT22;53228;51.380;0.098;2022-10-16T00:16:43;13.00;99.90
66422;DHT22;53228;51.380;0.098;2022-10-16T00:19:11;13.10;99.90
66422;DHT22;53228;51.380;0.098;2022-10-16T00:21:39;13.10;99.90
66422;DHT22;53228;51.380;0.098;2022-10-16T00:24:26;13.10;99.90
66422;DHT22;53228;51.380;0.098;2022-10-16T00:26:53;13.20;99.90
66422;DHT22;53228;51.380;0.098;2022-10-16T00:29:21;13.30;99.90
66422;DHT22;53228;51.380;0.098;2022-10-16T00:31:48;13.40;99.90
66422;DHT22;53228;51.380;0.098;2022-10-16T00:34:16;13.40;99.90
66422;DHT22;53228;51.380;0.098;2022-10-16T00:36:46;13.30;99.90
66422;DHT22;53228;51.380;0.098;2022-10-16T00:39:14;13.30;99.90
66422;DHT22;53228;51.380;0.098;2022-10-16T00:41:42;13.20;99.90
66422;DHT22;53228;51.380;0.098;2022-10-16T00:47:30;13.10;99.90
66422;DHT22;53228;51.380;0.098;2022-10-16T00:50:16;13.00;99.90
66422;DHT22;53228;51.380;0.098;2022-10-16T00:52:47;13.00;99.90
66422;DHT22;53228;51.380;0.098;2022-10-16T00:55:15;13.00;99.90
66422;DHT22;53228;51.380;0.098;2022-10-16T00:57:44;12.80;99.90
66422;DHT22;53228;51.380;0.098;2022-10-16T01:00:16;12.90;99.90
66422;DHT22;53228;51.380;0.098;2022-10-16T01:02:44;12.90;99.90
66422;DHT22;53228;51.380;0.098;2022-10-16T01:05:12;12.90;99.90
66422;DHT22;53228;51.380;0.098;2022-10-16T01:08:12;12.80;99.90
66422;DHT22;53228;51.380;0.098;2022-10-16T01:10:49;12.70;99.90
66422;DHT22;53228;51.380;0.098;2022-10-16T01:13:35;12.70;99.90
66422;DHT22;53228;51.380;0.098;2022-10-16T01:18:46;12.60;99.90
66422;DHT22;53228;51.380;0.098;2022-10-16T01:24:02;12.50;99.90
66422;DHT22;53228;51.380;0.098;2022-10-16T01:26:42;12.50;99.90
66422;DHT22;53228;51.380;0.098;2022-10-16T01:29:20;12.50;99.90
66422;DHT22;53228;51.380;0.098;2022-10-16T01:31:56;12.40;99.90
66422;DHT22;53228;51.380;0.098;2022-10-16T01:34:37;12.40;99.90
66422;DHT22;53228;51.380;0.098;2022-10-16T01:37:09;12.40;99.90
66422;DHT22;53228;51.380;0.098;2022-10-16T01:39:41;12.40;99.90
66422;DHT22;53228;51.380;0.098;2022-10-16T01:42:17;12.40;99.90
66422;DHT22;53228;51.380;0.098;2022-10-16T01:44:47;12.40;99.90
66422;DHT22;53228;51.380;0.098;2022-10-16T01:47:17;12.50;99.90
66422;DHT22;53228;51.380;0.098;2022-10-16T01:49:46;12.40;99.90
66422;DHT22;53228;51.380;0.098;2022-10-16T01:52:17;12.40;99.90
66422;DHT22;53228;51.380;0.098;2022-10-16T01:54:48;12.50;99.90
66422;DHT22;53228;51.380;0.098;2022-10-16T01:57:16;12.50;99.90
66422;DHT22;53228;51.380;0.098;2022-10-16T01:59:51;12.50;99.90
66422;DHT22;53228;51.380;0.098;2022-10-16T02:02:21;12.60;99.90
66422;DHT22;53228;51.380;0.098;2022-10-16T02:04:56;12.70;99.90
66422;DHT22;53228;51.380;0.098;2022-10-16T02:07:25;12.70;99.90
66422;DHT22;53228;51.380;0.098;2022-10-16T02:09:52;12.90;99.90
66422;DHT22;53228;51.380;0.098;2022-10-16T02:12:28;13.00;99.90
66422;DHT22;53228;51.380;0.098;2022-10-16T02:14:57;12.90;99.90
66422;DHT22;53228;51.380;0.098;2022-10-16T02:17:25;12.90;99.90
66422;DHT22;53228;51.380;0.098;2022-10-16T02:19:54;13.00;99.90
66422;DHT22;53228;51.380;0.098;2022-10-16T02:22:36;13.10;99.90
66422;DHT22;53228;51.380;0.098;2022-10-16T02:25:13;13.20;99.90
66422;DHT22;53228;51.380;0.098;2022-10-16T02:30:30;13.20;99.90
66422;DHT22;53228;51.380;0.098;2022-10-16T02:32:58;13.20;99.90
66422;DHT22;53228;51.380;0.098;2022-10-16T02:35:28;13.50;99.90
66422;DHT22;53228;51.380;0.098;2022-10-16T02:37:56;13.20;99.90
66422;DHT22;53228;51.380;0.098;2022-10-16T02:40:26;13.00;99.90
66422;DHT22;53228;51.380;0.098;2022-10-16T02:42:54;13.00;99.90
66422;DHT22;53228;51.380;0.098;2022-10-16T02:45:24;13.40;99.90
66422;DHT22;53228;51.380;0.098;2022-10-16T02:47:52;12.90;99.90
66422;DHT22;53228;51.380;0.098;2022-10-16T02:50:19;12.80;99.90
66422;DHT22;53228;51.380;0.098;2022-10-16T02:52:47;13.20;99.90
66422;DHT22;53228;51.380;0.098;2022-10-16T02:55:15;12.80;99.90
66422;DHT22;53228;51.380;0.098;2022-10-16T02:57:42;12.70;99.90
66422;DHT22;53228;51.380;0.098;2022-10-16T03:00:13;12.70;99.90
66422;DHT22;53228;51.380;0.098;2022-10-16T03:02:41;12.70;99.90
66422;DHT22;53228;51.380;0.098;2022-10-16T03:05:08;12.70;99.90
66422;DHT22;53228;51.380;0.098;2022-10-16T03:07:36;12.60;99.90
66422;DHT22;53228;51.380;0.098;2022-10-16T03:10:04;12.60;99.90
66422;DHT22;53228;51.380;0.098;2022-10-16T03:12:32;12.60;99.90
66422;DHT22;53228;51.380;0.098;2022-10-16T03:15:00;12.60;99.90
66422;DHT22;53228;51.380;0.098;2022-10-16T03:17:28;12.60;99.90
66422;DHT22;53228;51.380;0.098;2022-10-16T03:19:55;12.50;99.90
66422;DHT22;53228;51.380;0.098;2022-10-16T03:22:23;12.50;99.90
66422;DHT22;53228;51.380;0.098;2022-10-16T03:24:51;12.50;99.90
66422;DHT22;53228;51.380;0.098;2022-10-16T03:27:18;12.40;99.90
66422;DHT22;53228;51.380;0.098;2022-10-16T03:29:45;12.40;99.90
66422;DHT22;53228;51.380;0.098;2022-10-16T03:32:13;12.40;99.90
66422;DHT22;53228;51.380;0.098;2022-10-16T03:34:40;12.30;99.90
66422;DHT22;53228;51.380;0.098;2022-10-16T03:37:09;12.20;99.90
66422;DHT22;53228;51.380;0.098;2022-10-16T03:39:36;12.30;99.90
66422;DHT22;53228;51.380;0.098;2022-10-16T03:42:04;12.30;99.90
66422;DHT22;53228;51.380;0.098;2022-10-16T03:44:32;12.10;99.90
66422;DHT22;53228;51.380;0.098;2022-10-16T03:46:59;12.30;99.90
66422;DHT22;53228;51.380;0.098;2022-10-16T03:49:27;12.30;99.90
66422;DHT22;53228;51.380;0.098;2022-10-16T03:51:55;12.30;99.90
66422;DHT22;53228;51.380;0.098;2022-10-16T03:54:22;12.30;99.90
66422;DHT22;53228;51.380;0.098;2022-10-16T03:56:50;12.30;99.90
66422;DHT22;53228;51.380;0.098;2022-10-16T03:59:18;12.20;99.90
66422;DHT22;53228;51.380;0.098;2022-10-16T04:01:45;12.30;99.90
66422;DHT22;53228;51.380;0.098;2022-10-16T04:04:13;12.30;99.90
66422;DHT22;53228;51.380;0.098;2022-10-16T04:06:40;12.40;99.90
66422;DHT22;53228;51.380;0.098;2022-10-16T04:09:08;12.20;99.90
66422;DHT22;53228;51.380;0.098;2022-10-16T04:11:35;14.20;99.90
66422;DHT22;53228;51.380;0.098;2022-10-16T04:14:03;13.90;99.90
66422;DHT22;53228;51.380;0.098;2022-10-16T04:16:31;12.20;99.90
66422;DHT22;53228;51.380;0.098;2022-10-16T04:18:58;12.20;99.90
66422;DHT22;53228;51.380;0.098;2022-10-16T04:21:26;12.10;99.90
66422;DHT22;53228;51.380;0.098;2022-10-16T04:23:53;12.10;99.90
66422;DHT22;53228;51.380;0.098;2022-10-16T04:26:21;12.10;99.90
66422;DHT22;53228;51.380;0.098;2022-10-16T04:28:48;12.10;99.90
66422;DHT22;53228;51.380;0.098;2022-10-16T04:31:16;12.10;99.90
66422;DHT22;53228;51.380;0.098;2022-10-16T04:33:44;12.00;99.90
66422;DHT22;53228;51.380;0.098;2022-10-16T04:36:11;12.20;99.90
66422;DHT22;53228;51.380;0.098;2022-10-16T04:38:39;12.00;99.90
66422;DHT22;53228;51.380;0.098;2022-10-16T04:41:07;12.00;99.90
66422;DHT22;53228;51.380;0.098;2022-10-16T04:43:34;12.00;99.90
66422;DHT22;53228;51.380;0.098;2022-10-16T04:46:02;11.90;99.90
66422;DHT22;53228;51.380;0.098;2022-10-16T04:48:32;12.00;99.90
66422;DHT22;53228;51.380;0.098;2022-10-16T04:50:59;11.90;99.90
66422;DHT22;53228;51.380;0.098;2022-10-16T04:53:27;11.90;99.90
66422;DHT22;53228;51.380;0.098;2022-10-16T04:55:55;12.30;99.90
66422;DHT22;53228;51.380;0.098;2022-10-16T04:58:23;11.90;99.90
66422;DHT22;53228;51.380;0.098;2022-10-16T05:00:50;11.90;99.90
66422;DHT22;53228;51.380;0.098;2022-10-16T05:03:18;11.80;99.90
66422;DHT22;53228;51.380;0.098;2022-10-16T05:05:46;11.90;99.90
66422;DHT22;53228;51.380;0.098;2022-10-16T05:08:15;11.80;99.90
66422;DHT22;53228;51.380;0.098;2022-10-16T05:10:44;11.80;99.90
66422;DHT22;53228;51.380;0.098;2022-10-16T05:13:12;11.80;99.90
66422;DHT22;53228;51.380;0.098;2022-10-16T05:15:40;11.70;99.90
66422;DHT22;53228;51.380;0.098;2022-10-16T05:18:08;12.30;99.90
66422;DHT22;53228;51.380;0.098;2022-10-16T05:20:36;11.70;99.90
66422;DHT22;53228;51.380;0.098;2022-10-16T05:23:04;11.70;99.90
66422;DHT22;53228;51.380;0.098;2022-10-16T05:25:32;11.70;99.90
66422;DHT22;53228;51.380;0.098;2022-10-16T05:27:59;11.80;99.90
66422;DHT22;53228;51.380;0.098;2022-10-16T05:30:27;12.30;99.90
66422;DHT22;53228;51.380;0.098;2022-10-16T05:32:55;11.90;99.90
66422;DHT22;53228;51.380;0.098;2022-10-16T05:35:22;11.80;99.90
66422;DHT22;53228;51.380;0.098;2022-10-16T05:37:50;11.80;99.90
66422;DHT22;53228;51.380;0.098;2022-10-16T05:40:17;11.70;99.90
66422;DHT22;53228;51.380;0.098;2022-10-16T05:42:45;11.70;99.90
66422;DHT22;53228;51.380;0.098;2022-10-16T05:45:12;11.80;99.90
66422;DHT22;53228;51.380;0.098;2022-10-16T05:47:40;11.80;99.90
66422;DHT22;53228;51.380;0.098;2022-10-16T05:50:08;11.80;99.90
66422;DHT22;53228;51.380;0.098;2022-10-16T05:52:36;11.70;99.90
66422;DHT22;53228;51.380;0.098;2022-10-16T05:55:04;11.70;99.90
66422;DHT22;53228;51.380;0.098;2022-10-16T05:57:32;11.70;99.90
66422;DHT22;53228;51.380;0.098;2022-10-16T05:59:59;11.70;99.90
66422;DHT22;53228;51.380;0.098;2022-10-16T06:02:27;11.70;99.90
66422;DHT22;53228;51.380;0.098;2022-10-16T06:04:54;11.60;99.90
66422;DHT22;53228;51.380;0.098;2022-10-16T06:07:22;11.60;99.90
66422;DHT22;53228;51.380;0.098;2022-10-16T06:09:51;11.50;99.90
66422;DHT22;53228;51.380;0.098;2022-10-16T06:12:20;11.60;99.90
66422;DHT22;53228;51.380;0.098;2022-10-16T06:14:48;11.60;99.90
66422;DHT22;53228;51.380;0.098;2022-10-16T06:17:15;11.70;99.90
66422;DHT22;53228;51.380;0.098;2022-10-16T06:19:43;11.60;99.90
66422;DHT22;53228;51.380;0.098;2022-10-16T06:22:11;11.80;99.90
66422;DHT22;53228;51.380;0.098;2022-10-16T06:24:38;11.50;99.90
66422;DHT22;53228;51.380;0.098;2022-10-16T06:27:06;11.50;99.90
66422;DHT22;53228;51.380;0.098;2022-10-16T06:29:33;11.50;99.90
66422;DHT22;53228;51.380;0.098;2022-10-16T06:32:01;11.40;99.90
66422;DHT22;53228;51.380;0.098;2022-10-16T06:34:29;11.40;99.90
66422;DHT22;53228;51.380;0.098;2022-10-16T06:36:56;11.40;99.90
66422;DHT22;53228;51.380;0.098;2022-10-16T06:39:24;12.10;99.90
66422;DHT22;53228;51.380;0.098;2022-10-16T06:41:51;11.40;99.90
66422;DHT22;53228;51.380;0.098;2022-10-16T06:44:20;11.40;99.90
66422;DHT22;53228;51.380;0.098;2022-10-16T06:46:47;11.40;99.90
66422;DHT22;53228;51.380;0.098;2022-10-16T06:49:15;11.40;99.90
66422;DHT22;53228;51.380;0.098;2022-10-16T06:51:49;11.40;99.90
66422;DHT22;53228;51.380;0.098;2022-10-16T06:54:16;11.50;99.90
66422;DHT22;53228;51.380;0.098;2022-10-16T06:56:45;11.40;99.90
66422;DHT22;53228;51.380;0.098;2022-10-16T06:59:12;11.40;99.90
66422;DHT22;53228;51.380;0.098;2022-10-16T07:01:40;11.40;99.90
66422;DHT22;53228;51.380;0.098;2022-10-16T07:04:07;11.50;99.90
66422;DHT22;53228;51.380;0.098;2022-10-16T07:06:35;11.50;99.90
66422;DHT22;53228;51.380;0.098;2022-10-16T07:09:05;11.60;99.90
66422;DHT22;53228;51.380;0.098;2022-10-16T07:11:33;11.60;99.90
66422;DHT22;53228;51.380;0.098;2022-10-16T07:14:01;11.70;99.90
66422;DHT22;53228;51.380;0.098;2022-10-16T07:16:31;11.60;99.90
66422;DHT22;53228;51.380;0.098;2022-10-16T07:19:00;11.70;99.90
66422;DHT22;53228;51.380;0.098;2022-10-16T07:21:33;11.60;99.90
66422;DHT22;53228;51.380;0.098;2022-10-16T07:24:06;11.80;99.90
66422;DHT22;53228;51.380;0.098;2022-10-16T07:26:36;11.80;99.90
66422;DHT22;53228;51.380;0.098;2022-10-16T07:29:04;11.90;99.90
66422;DHT22;53228;51.380;0.098;2022-10-16T07:31:32;11.90;99.90
66422;DHT22;53228;51.380;0.098;2022-10-16T07:34:00;11.90;99.90
66422;DHT22;53228;51.380;0.098;2022-10-16T07:36:27;11.90;99.90
66422;DHT22;53228;51.380;0.098;2022-10-16T07:38:55;12.00;99.90
66422;DHT22;53228;51.380;0.098;2022-10-16T07:41:27;12.10;99.90
66422;DHT22;53228;51.380;0.098;2022-10-16T07:43:55;12.10;99.90
66422;DHT22;53228;51.380;0.098;2022-10-16T07:46:28;12.10;99.90
66422;DHT22;53228;51.380;0.098;2022-10-16T07:48:55;12.30;99.90
66422;DHT22;53228;51.380;0.098;2022-10-16T07:51:25;12.00;99.90
66422;DHT22;53228;51.380;0.098;2022-10-16T07:53:53;12.20;99.90
66422;DHT22;53228;51.380;0.098;2022-10-16T07:56:21;12.30;99.90
66422;DHT22;53228;51.380;0.098;2022-10-16T07:58:50;12.30;99.90
66422;DHT22;53228;51.380;0.098;2022-10-16T08:01:19;12.20;99.90
66422;DHT22;53228;51.380;0.098;2022-10-16T08:03:49;12.40;99.90
66422;DHT22;53228;51.380;0.098;2022-10-16T08:06:17;12.50;99.90
66422;DHT22;53228;51.380;0.098;2022-10-16T08:08:51;12.50;99.90
66422;DHT22;53228;51.380;0.098;2022-10-16T08:11:19;12.60;99.90
66422;DHT22;53228;51.380;0.098;2022-10-16T08:13:46;12.70;99.90
66422;DHT22;53228;51.380;0.098;2022-10-16T08:16:14;12.80;99.90
66422;DHT22;53228;51.380;0.098;2022-10-16T08:18:41;13.30;99.90
66422;DHT22;53228;51.380;0.098;2022-10-16T08:21:14;13.00;99.90
66422;DHT22;53228;51.380;0.098;2022-10-16T08:23:47;13.20;99.90
66422;DHT22;53228;51.380;0.098;2022-10-16T08:26:23;13.40;99.90
66422;DHT22;53228;51.380;0.098;2022-10-16T08:28:51;13.60;99.90
66422;DHT22;53228;51.380;0.098;2022-10-16T08:31:19;13.70;99.90
66422;DHT22;53228;51.380;0.098;2022-10-16T08:33:47;13.80;99.90
66422;DHT22;53228;51.380;0.098;2022-10-16T08:36:16;14.00;99.90
66422;DHT22;53228;51.380;0.098;2022-10-16T08:38:44;14.00;99.90
66422;DHT22;53228;51.380;0.098;2022-10-16T08:41:38;14.20;99.90
66422;DHT22;53228;51.380;0.098;2022-10-16T08:50:10;14.30;99.90
66422;DHT22;53228;51.380;0.098;2022-10-16T08:52:41;14.20;99.90
66422;DHT22;53228;51.380;0.098;2022-10-16T08:55:43;14.20;99.90
66422;DHT22;53228;51.380;0.098;2022-10-16T08:58:17;14.20;99.90
66422;DHT22;53228;51.380;0.098;2022-10-16T09:01:11;14.20;99.90
66422;DHT22;53228;51.380;0.098;2022-10-16T09:04:13;14.30;99.90
66422;DHT22;53228;51.380;0.098;2022-10-16T09:06:47;14.30;99.90
66422;DHT22;53228;51.380;0.098;2022-10-16T09:09:50;14.30;99.90
66422;DHT22;53228;51.380;0.098;2022-10-16T09:12:38;14.30;99.90
66422;DHT22;53228;51.380;0.098;2022-10-16T09:23:41;14.40;99.90
66422;DHT22;53228;51.380;0.098;2022-10-16T09:26:14;14.50;99.90
66422;DHT22;53228;51.380;0.098;2022-10-16T09:28:42;14.50;99.90
66422;DHT22;53228;51.380;0.098;2022-10-16T09:31:20;14.50;99.90
66422;DHT22;53228;51.380;0.098;2022-10-16T09:33:55;14.60;99.90
66422;DHT22;53228;51.380;0.098;2022-10-16T09:36:26;14.60;99.90
66422;DHT22;53228;51.380;0.098;2022-10-16T09:39:06;14.60;99.90
66422;DHT22;53228;51.380;0.098;2022-10-16T09:41:42;14.70;99.90
66422;DHT22;53228;51.380;0.098;2022-10-16T09:46:47;14.70;99.90
66422;DHT22;53228;51.380;0.098;2022-10-16T09:49:24;14.80;99.90
66422;DHT22;53228;51.380;0.098;2022-10-16T09:52:13;14.90;99.90
66422;DHT22;53228;51.380;0.098;2022-10-16T09:54:55;15.00;99.90
66422;DHT22;53228;51.380;0.098;2022-10-16T09:57:24;15.10;99.90
66422;DHT22;53228;51.380;0.098;2022-10-16T09:59:54;15.00;99.90
66422;DHT22;53228;51.380;0.098;2022-10-16T10:02:39;15.30;99.90
66422;DHT22;53228;51.380;0.098;2022-10-16T10:05:18;15.30;99.90
66422;DHT22;53228;51.380;0.098;2022-10-16T10:07:58;15.40;99.90
66422;DHT22;53228;51.380;0.098;2022-10-16T10:10:30;15.40;99.90
66422;DHT22;53228;51.380;0.098;2022-10-16T10:12:59;15.40;99.90
66422;DHT22;53228;51.380;0.098;2022-10-16T10:15:33;15.50;99.90
66422;DHT22;53228;51.380;0.098;2022-10-16T10:18:22;15.80;99.90
66422;DHT22;53228;51.380;0.098;2022-10-16T10:20:59;15.80;99.90
66422;DHT22;53228;51.380;0.098;2022-10-16T10:23:29;16.00;99.90
66422;DHT22;53228;51.380;0.098;2022-10-16T10:29:15;16.20;99.90
66422;DHT22;53228;51.380;0.098;2022-10-16T10:32:12;16.40;99.90
66422;DHT22;53228;51.380;0.098;2022-10-16T10:37:55;16.60;99.90
66422;DHT22;53228;51.380;0.098;2022-10-16T10:40:55;16.70;99.90
66422;DHT22;53228;51.380;0.098;2022-10-16T10:43:48;16.80;99.90
66422;DHT22;53228;51.380;0.098;2022-10-16T10:46:36;17.00;99.90
66422;DHT22;53228;51.380;0.098;2022-10-16T10:49:34;17.10;99.90
66422;DHT22;53228;51.380;0.098;2022-10-16T10:55:08;17.20;99.90
66422;DHT22;53228;51.380;0.098;2022-10-16T10:57:49;17.30;99.90
66422;DHT22;53228;51.380;0.098;2022-10-16T11:00:30;17.50;99.90
66422;DHT22;53228;51.380;0.098;2022-10-16T11:06:05;17.50;99.90
66422;DHT22;53228;51.380;0.098;2022-10-16T11:08:50;17.50;99.90
66422;DHT22;53228;51.380;0.098;2022-10-16T11:22:33;17.70;99.90
66422;DHT22;53228;51.380;0.098;2022-10-16T11:28:03;17.80;99.90
66422;DHT22;53228;51.380;0.098;2022-10-16T11:35:38;17.90;99.90
66422;DHT22;53228;51.380;0.098;2022-10-16T11:38:14;18.00;99.90
66422;DHT22;53228;51.380;0.098;2022-10-16T11:40:45;17.80;99.90
66422;DHT22;53228;51.380;0.098;2022-10-16T11:46:21;17.70;99.90
66422;DHT22;53228;51.380;0.098;2022-10-16T11:49:13;17.70;99.90
66422;DHT22;53228;51.380;0.098;2022-10-16T11:51:48;17.70;99.90
66422;DHT22;53228;51.380;0.098;2022-10-16T11:54:26;17.70;99.90
66422;DHT22;53228;51.380;0.098;2022-10-16T11:57:00;17.80;99.90
66422;DHT22;53228;51.380;0.098;2022-10-16T11:59:35;17.80;99.90
66422;DHT22;53228;51.380;0.098;2022-10-16T12:07:56;18.00;99.90
66422;DHT22;53228;51.380;0.098;2022-10-16T12:10:28;18.20;99.90
66422;DHT22;53228;51.380;0.098;2022-10-16T12:12:59;18.10;99.90
66422;DHT22;53228;51.380;0.098;2022-10-16T12:15:32;18.20;99.90
66422;DHT22;53228;51.380;0.098;2022-10-16T12:18:22;18.20;99.90
66422;DHT22;53228;51.380;0.098;2022-10-16T12:20:57;18.20;99.90
66422;DHT22;53228;51.380;0.098;2022-10-16T12:23:37;18.10;99.90
66422;DHT22;53228;51.380;0.098;2022-10-16T12:26:05;18.00;99.90
66422;DHT22;53228;51.380;0.098;2022-10-16T12:28:33;18.00;99.90
66422;DHT22;53228;51.380;0.098;2022-10-16T12:31:04;17.90;99.90
66422;DHT22;53228;51.380;0.098;2022-10-16T12:33:34;17.80;99.90
66422;DHT22;53228;51.380;0.098;2022-10-16T12:36:27;17.80;99.90
66422;DHT22;53228;51.380;0.098;2022-10-16T12:38:53;17.70;99.90
66422;DHT22;53228;51.380;0.098;2022-10-16T12:41:32;17.60;99.90
66422;DHT22;53228;51.380;0.098;2022-10-16T12:44:01;17.50;99.90
66422;DHT22;53228;51.380;0.098;2022-10-16T12:51:42;17.40;99.90
66422;DHT22;53228;51.380;0.098;2022-10-16T12:54:18;17.40;99.90
66422;DHT22;53228;51.380;0.098;2022-10-16T13:07:52;17.30;99.90
66422;DHT22;53228;51.380;0.098;2022-10-16T13:13:36;17.30;99.90
66422;DHT22;53228;51.380;0.098;2022-10-16T13:22:14;17.30;99.90
66422;DHT22;53228;51.380;0.098;2022-10-16T13:24:57;17.30;99.90
66422;DHT22;53228;51.380;0.098;2022-10-16T13:30:01;17.20;99.90
66422;DHT22;53228;51.380;0.098;2022-10-16T13:32:30;17.20;99.90
66422;DHT22;53228;51.380;0.098;2022-10-16T13:34:58;17.30;99.90
66422;DHT22;53228;51.380;0.098;2022-10-16T13:37:27;17.20;99.90
66422;DHT22;53228;51.380;0.098;2022-10-16T13:40:21;17.20;99.90
66422;DHT22;53228;51.380;0.098;2022-10-16T13:42:50;17.20;99.90
66422;DHT22;53228;51.380;0.098;2022-10-16T13:45:20;17.20;99.90
66422;DHT22;53228;51.380;0.098;2022-10-16T13:47:48;17.10;99.90
66422;DHT22;53228;51.380;0.098;2022-10-16T13:50:17;17.10;99.90
66422;DHT22;53228;51.380;0.098;2022-10-16T13:52:46;17.30;99.90
66422;DHT22;53228;51.380;0.098;2022-10-16T13:55:16;17.20;99.90
66422;DHT22;53228;51.380;0.098;2022-10-16T13:57:44;17.30;99.90
66422;DHT22;53228;51.380;0.098;2022-10-16T14:02:53;17.30;99.90
66422;DHT22;53228;51.380;0.098;2022-10-16T14:05:22;17.30;99.90
66422;DHT22;53228;51.380;0.098;2022-10-16T14:07:51;17.40;99.90
66422;DHT22;53228;51.380;0.098;2022-10-16T14:10:31;17.40;99.90
66422;DHT22;53228;51.380;0.098;2022-10-16T14:13:07;17.40;99.90
66422;DHT22;53228;51.380;0.098;2022-10-16T14:15:36;17.30;99.90
66422;DHT22;53228;51.380;0.098;2022-10-16T14:18:04;17.80;99.90
66422;DHT22;53228;51.380;0.098;2022-10-16T14:20:33;17.30;99.90
66422;DHT22;53228;51.380;0.098;2022-10-16T14:23:03;17.30;99.90
66422;DHT22;53228;51.380;0.098;2022-10-16T14:25:32;17.30;99.90
66422;DHT22;53228;51.380;0.098;2022-10-16T14:28:16;17.30;99.90
66422;DHT22;53228;51.380;0.098;2022-10-16T14:31:01;17.20;99.90
66422;DHT22;53228;51.380;0.098;2022-10-16T14:38:30;17.10;99.90
66422;DHT22;53228;51.380;0.098;2022-10-16T14:40:59;17.10;99.90
66422;DHT22;53228;51.380;0.098;2022-10-16T14:43:36;17.00;99.90
66422;DHT22;53228;51.380;0.098;2022-10-16T14:46:21;17.00;99.90
66422;DHT22;53228;51.380;0.098;2022-10-16T14:49:00;17.00;99.90
66422;DHT22;53228;51.380;0.098;2022-10-16T14:51:29;17.00;99.90
66422;DHT22;53228;51.380;0.098;2022-10-16T14:54:08;16.90;99.90
66422;DHT22;53228;51.380;0.098;2022-10-16T14:56:51;16.90;99.90
66422;DHT22;53228;51.380;0.098;2022-10-16T14:59:21;16.90;99.90
66422;DHT22;53228;51.380;0.098;2022-10-16T15:01:52;16.90;99.90
66422;DHT22;53228;51.380;0.098;2022-10-16T15:04:19;16.90;99.90
66422;DHT22;53228;51.380;0.098;2022-10-16T15:06:47;16.90;99.90
66422;DHT22;53228;51.380;0.098;2022-10-16T15:09:15;16.90;99.90
66422;DHT22;53228;51.380;0.098;2022-10-16T15:11:43;16.90;99.90
66422;DHT22;53228;51.380;0.098;2022-10-16T15:14:13;16.90;99.90
66422;DHT22;53228;51.380;0.098;2022-10-16T15:19:09;16.80;99.90
66422;DHT22;53228;51.380;0.098;2022-10-16T15:21:37;16.70;99.90
66422;DHT22;53228;51.380;0.098;2022-10-16T15:24:09;16.60;99.90
66422;DHT22;53228;51.380;0.098;2022-10-16T15:26:44;16.60;99.90
66422;DHT22;53228;51.380;0.098;2022-10-16T15:29:18;16.50;99.90
66422;DHT22;53228;51.380;0.098;2022-10-16T15:31:46;16.50;99.90
66422;DHT22;53228;51.380;0.098;2022-10-16T15:34:14;16.40;99.90
66422;DHT22;53228;51.380;0.098;2022-10-16T15:36:42;16.30;99.90
66422;DHT22;53228;51.380;0.098;2022-10-16T15:39:20;16.40;99.90
66422;DHT22;53228;51.380;0.098;2022-10-16T15:41:48;16.30;99.90
66422;DHT22;53228;51.380;0.098;2022-10-16T15:44:21;16.20;99.90
66422;DHT22;53228;51.380;0.098;2022-10-16T15:46:56;16.20;99.90
66422;DHT22;53228;51.380;0.098;2022-10-16T15:49:25;16.20;99.90
66422;DHT22;53228;51.380;0.098;2022-10-16T15:51:53;16.10;99.90
66422;DHT22;53228;51.380;0.098;2022-10-16T15:54:22;16.10;99.90
66422;DHT22;53228;51.380;0.098;2022-10-16T15:56:50;16.10;99.90
66422;DHT22;53228;51.380;0.098;2022-10-16T15:59:20;16.10;99.90
66422;DHT22;53228;51.380;0.098;2022-10-16T16:01:48;16.10;99.90
66422;DHT22;53228;51.380;0.098;2022-10-16T16:04:15;16.00;99.90
66422;DHT22;53228;51.380;0.098;2022-10-16T16:07:04;16.00;99.90
66422;DHT22;53228;51.380;0.098;2022-10-16T16:09:34;16.00;99.90
66422;DHT22;53228;51.380;0.098;2022-10-16T16:12:02;16.00;99.90
66422;DHT22;53228;51.380;0.098;2022-10-16T16:14:29;16.00;99.90
66422;DHT22;53228;51.380;0.098;2022-10-16T16:16:57;15.90;99.90
66422;DHT22;53228;51.380;0.098;2022-10-16T16:19:25;15.90;99.90
66422;DHT22;53228;51.380;0.098;2022-10-16T16:21:52;15.80;99.90
66422;DHT22;53228;51.380;0.098;2022-10-16T16:24:20;15.80;99.90
66422;DHT22;53228;51.380;0.098;2022-10-16T16:26:48;15.80;99.90
66422;DHT22;53228;51.380;0.098;2022-10-16T16:29:18;15.80;99.90
66422;DHT22;53228;51.380;0.098;2022-10-16T16:31:45;15.70;99.90
66422;DHT22;53228;51.380;0.098;2022-10-16T16:34:14;15.70;99.90
66422;DHT22;53228;51.380;0.098;2022-10-16T16:36:42;15.70;99.90
66422;DHT22;53228;51.380;0.098;2022-10-16T16:39:10;15.70;99.90
66422;DHT22;53228;51.380;0.098;2022-10-16T16:41:38;15.60;99.90
66422;DHT22;53228;51.380;0.098;2022-10-16T16:44:08;15.60;99.90
66422;DHT22;53228;51.380;0.098;2022-10-16T16:46:36;15.60;99.90
66422;DHT22;53228;51.380;0.098;2022-10-16T16:49:04;15.50;99.90
66422;DHT22;53228;51.380;0.098;2022-10-16T16:51:33;15.50;99.90
66422;DHT22;53228;51.380;0.098;2022-10-16T16:54:07;15.50;99.90
66422;DHT22;53228;51.380;0.098;2022-10-16T16:59:20;15.40;99.90
66422;DHT22;53228;51.380;0.098;2022-10-16T17:01:49;15.40;99.90
66422;DHT22;53228;51.380;0.098;2022-10-16T17:04:23;15.40;99.90
66422;DHT22;53228;51.380;0.098;2022-10-16T17:06:53;15.40;99.90
66422;DHT22;53228;51.380;0.098;2022-10-16T17:09:21;15.30;99.90
66422;DHT22;53228;51.380;0.098;2022-10-16T17:11:49;15.30;99.90
66422;DHT22;53228;51.380;0.098;2022-10-16T17:14:17;15.30;99.90
66422;DHT22;53228;51.380;0.098;2022-10-16T17:16:45;15.20;99.90
66422;DHT22;53228;51.380;0.098;2022-10-16T17:19:15;15.20;99.90
66422;DHT22;53228;51.380;0.098;2022-10-16T17:21:44;15.20;99.90
66422;DHT22;53228;51.380;0.098;2022-10-16T17:24:11;15.10;99.90
66422;DHT22;53228;51.380;0.098;2022-10-16T17:26:39;15.20;99.90
66422;DHT22;53228;51.380;0.098;2022-10-16T17:29:11;15.20;99.90
66422;DHT22;53228;51.380;0.098;2022-10-16T17:31:39;15.20;99.90
66422;DHT22;53228;51.380;0.098;2022-10-16T17:34:08;15.20;99.90
66422;DHT22;53228;51.380;0.098;2022-10-16T17:36:39;15.20;99.90
66422;DHT22;53228;51.380;0.098;2022-10-16T17:39:12;15.20;99.90
66422;DHT22;53228;51.380;0.098;2022-10-16T17:41:40;15.10;99.90
66422;DHT22;53228;51.380;0.098;2022-10-16T17:44:07;15.20;99.90
66422;DHT22;53228;51.380;0.098;2022-10-16T17:46:35;15.20;99.90